createdAt,value
2023-05-12T00:00:15.113Z,15.27
2023-05-12T00:05:16.709Z,15.10
2023-05-12T00:10:18.385Z,15.30
2023-05-12T00:15:20.044Z,15.73
2023-05-12T00:20:21.931Z,15.43
2023-05-12T00:25:23.651Z,15.61
2023-05-12T00:30:25.144Z,15.79
2023-05-12T00:35:26.696Z,15.91
2023-05-12T00:40:28.194Z,15.91
2023-05-12T00:45:29.810Z,15.47
2023-05-12T00:50:31.400Z,15.85
2023-05-12T00:55:32.908Z,15.90
2023-05-12T01:00:34.408Z,15.64
2023-05-12T01:05:50.941Z,15.67
2023-05-12T01:10:52.460Z,15.71
2023-05-12T01:15:54.004Z,15.46
2023-05-12T01:20:56.432Z,16.07
2023-05-12T01:26:08.178Z,15.93
2023-05-12T01:31:09.797Z,16.15
2023-05-12T01:36:11.331Z,16.31
2023-05-12T01:41:12.822Z,16.16
2023-05-12T01:46:14.377Z,16.23
2023-05-12T01:51:16.214Z,15.93
2023-05-12T01:56:17.717Z,16.41
2023-05-12T02:01:19.250Z,16.50
2023-05-12T02:06:21.460Z,16.43
2023-05-12T02:11:23.058Z,16.36
2023-05-12T02:16:24.604Z,16.52
2023-05-12T02:21:26.285Z,16.25
2023-05-12T02:26:27.778Z,16.73
2023-05-12T02:31:29.284Z,16.85
2023-05-12T02:36:30.784Z,16.88
2023-05-12T02:41:32.306Z,16.97
2023-05-12T02:46:34.175Z,16.94
2023-05-12T02:51:35.694Z,17.15
2023-05-12T02:56:37.219Z,17.11
2023-05-12T03:01:38.722Z,17.13
2023-05-12T03:06:40.892Z,17.04
2023-05-12T03:11:42.386Z,17.18
2023-05-12T03:16:43.910Z,16.88
2023-05-12T03:21:45.460Z,16.68
2023-05-12T03:26:46.971Z,16.84
2023-05-12T03:31:48.542Z,16.92
2023-05-12T03:36:50.079Z,17.07
2023-05-12T03:41:51.590Z,16.96
2023-05-12T03:46:53.206Z,16.50
2023-05-12T03:51:54.767Z,16.73
2023-05-12T03:56:56.295Z,16.89
2023-05-12T04:01:58.061Z,16.56
2023-05-12T04:06:59.762Z,16.70
2023-05-12T04:12:01.251Z,16.79
2023-05-12T04:17:03.305Z,16.93
2023-05-12T04:22:04.945Z,17.06
2023-05-12T04:27:07.075Z,17.11
2023-05-12T04:32:08.770Z,17.03
2023-05-12T04:37:10.698Z,17.11
2023-05-12T04:42:12.192Z,17.13
2023-05-12T04:47:13.708Z,17.01
2023-05-12T04:52:15.251Z,17.13
2023-05-12T04:57:16.741Z,17.20
2023-05-12T05:02:18.364Z,17.19
2023-05-12T05:07:20.173Z,17.37
2023-05-12T05:12:21.665Z,17.44
2023-05-12T05:17:23.238Z,17.34
2023-05-12T05:22:24.825Z,17.41
2023-05-12T05:27:26.620Z,17.47
2023-05-12T05:32:28.135Z,17.52
2023-05-12T05:37:29.725Z,17.53
2023-05-12T05:42:31.259Z,17.61
2023-05-12T05:47:34.339Z,17.58
2023-05-12T05:52:35.880Z,17.31
2023-05-12T05:57:37.821Z,17.37
2023-05-12T06:02:39.527Z,17.34
2023-05-12T06:07:41.205Z,17.36
2023-05-12T06:12:43.766Z,17.27
2023-05-12T06:17:45.564Z,17.47
2023-05-12T06:22:47.266Z,17.45
2023-05-12T06:27:51.750Z,17.65
2023-05-12T06:32:53.302Z,17.81
2023-05-12T06:37:54.847Z,17.81
2023-05-12T06:42:56.350Z,17.66
2023-05-12T06:47:58.105Z,17.81
2023-05-12T06:52:59.604Z,17.75
2023-05-12T06:58:01.122Z,17.99
2023-05-12T07:03:02.727Z,18.06
2023-05-12T07:08:04.440Z,18.24
2023-05-12T07:13:05.975Z,18.36
2023-05-12T07:18:07.537Z,18.43
2023-05-12T07:23:09.326Z,18.53
2023-05-12T07:28:11.426Z,18.53
2023-05-12T07:33:13.010Z,18.49
2023-05-12T07:38:15.361Z,18.27
2023-05-12T07:43:17.496Z,18.72
2023-05-12T07:48:19.002Z,18.82
2023-05-12T07:53:20.574Z,18.52
2023-05-12T07:58:22.591Z,18.21
2023-05-12T08:03:24.234Z,18.36
2023-05-12T08:08:25.775Z,18.73
2023-05-12T08:13:27.286Z,18.46
2023-05-12T08:18:28.817Z,18.68
2023-05-12T08:23:30.353Z,18.43
2023-05-12T08:28:32.170Z,18.47
2023-05-12T08:33:35.854Z,18.43
2023-05-12T08:38:37.365Z,18.42
2023-05-12T08:43:43.988Z,17.87
2023-05-12T08:48:46.306Z,18.32
2023-05-12T08:53:47.864Z,18.96
2023-05-12T08:58:49.713Z,19.28
2023-05-12T09:03:52.395Z,19.68
2023-05-12T09:08:53.886Z,19.38
2023-05-12T09:14:01.125Z,18.89
2023-05-12T09:19:04.582Z,19.67
2023-05-12T09:24:07.785Z,19.33
2023-05-12T09:29:10.820Z,19.47
2023-05-12T09:34:13.513Z,19.24
2023-05-12T09:39:15.077Z,19.31
2023-05-12T09:44:16.972Z,19.90
2023-05-12T09:49:22.300Z,19.59
2023-05-12T09:54:28.329Z,18.99
2023-05-12T09:59:34.118Z,18.68
2023-05-12T10:04:42.442Z,19.61
2023-05-12T10:09:44.318Z,19.78
2023-05-12T10:14:45.864Z,19.58
2023-05-12T10:19:47.583Z,19.34
2023-05-12T10:24:49.325Z,19.55
2023-05-12T10:29:51.538Z,19.85
2023-05-12T10:34:55.917Z,19.97
2023-05-12T10:40:01.053Z,19.54
2023-05-12T10:45:04.712Z,19.83
2023-05-12T10:50:06.905Z,20.14
2023-05-12T10:55:11.751Z,19.72
2023-05-12T11:00:14.747Z,19.59
2023-05-12T11:05:17.163Z,19.64
2023-05-12T11:10:19.593Z,19.66
2023-05-12T11:15:22.467Z,20.15
2023-05-12T11:20:25.100Z,20.59
2023-05-12T11:25:28.205Z,20.40
2023-05-12T11:30:29.767Z,20.39
2023-05-12T11:35:32.048Z,21.24
2023-05-12T11:40:33.583Z,21.72
2023-05-12T11:45:35.104Z,21.24
2023-05-12T11:50:44.022Z,21.84
2023-05-12T11:55:51.559Z,22.51
2023-05-12T12:00:53.753Z,22.44
2023-05-12T12:06:03.402Z,23.29
2023-05-12T12:11:04.949Z,23.39
2023-05-12T12:16:06.719Z,23.04
2023-05-12T12:21:08.251Z,23.15
2023-05-12T12:26:09.836Z,23.26
2023-05-12T12:31:11.389Z,23.46
2023-05-12T12:36:12.994Z,23.94
2023-05-12T12:41:14.992Z,23.80
2023-05-12T12:46:16.508Z,23.73
2023-05-12T12:51:17.989Z,22.63
2023-05-12T12:56:19.634Z,22.74
2023-05-12T13:01:21.206Z,22.60
2023-05-12T13:06:22.792Z,22.95
2023-05-12T13:11:24.288Z,22.54
2023-05-12T13:16:25.815Z,22.29
2023-05-12T13:21:27.580Z,23.05
2023-05-12T13:26:29.073Z,23.68
2023-05-12T13:31:30.599Z,23.92
2023-05-12T13:36:34.492Z,23.55
2023-05-12T13:41:36.132Z,22.75
2023-05-12T13:46:37.700Z,23.70
2023-05-12T13:51:39.261Z,23.34
2023-05-12T13:56:40.830Z,21.91
2023-05-12T14:01:44.086Z,21.87
2023-05-12T14:06:45.944Z,21.54
2023-05-12T14:11:47.329Z,22.17
2023-05-12T14:16:48.767Z,21.49
2023-05-12T14:21:50.308Z,21.59
2023-05-12T14:26:52.526Z,21.59
2023-05-12T14:31:54.078Z,21.97
2023-05-12T14:36:55.614Z,21.10
2023-05-12T14:41:57.146Z,21.09
2023-05-12T14:46:58.712Z,21.43
2023-05-12T14:52:00.208Z,21.29
2023-05-12T14:57:01.709Z,21.32
2023-05-12T15:02:03.304Z,21.40
2023-05-12T15:07:05.059Z,21.57
2023-05-12T15:12:07.422Z,22.07
2023-05-12T15:17:09.140Z,21.40
2023-05-12T15:22:10.688Z,21.32
2023-05-12T15:27:12.275Z,21.12
2023-05-12T15:32:13.868Z,21.44
2023-05-12T15:37:15.463Z,20.97
2023-05-12T15:42:22.436Z,20.72
2023-05-12T15:47:28.003Z,21.08
2023-05-12T15:52:29.584Z,21.28
2023-05-12T15:57:31.416Z,20.76
2023-05-12T16:02:33.082Z,21.05
2023-05-12T16:07:34.712Z,20.43
2023-05-12T16:12:36.290Z,20.95
2023-05-12T16:17:37.868Z,20.28
2023-05-12T16:22:39.552Z,19.96
2023-05-12T16:27:41.093Z,19.87
2023-05-12T16:32:42.995Z,20.10
2023-05-12T16:37:44.569Z,20.23
2023-05-12T16:42:46.260Z,20.53
2023-05-12T16:47:51.358Z,20.18
2023-05-12T16:52:53.700Z,19.56
2023-05-12T16:57:55.251Z,19.84
2023-05-12T17:02:56.956Z,19.86
2023-05-12T17:07:59.733Z,19.77
2023-05-12T17:13:01.253Z,19.51
2023-05-12T17:18:02.883Z,19.87
2023-05-12T17:23:04.650Z,19.62
2023-05-12T17:28:06.148Z,19.66
2023-05-12T17:33:08.362Z,18.54
2023-05-12T17:38:10.551Z,18.65
2023-05-12T17:43:13.320Z,18.76
2023-05-12T17:48:14.865Z,18.09
2023-05-12T17:53:16.465Z,18.02
2023-05-12T17:58:18.034Z,18.24
2023-05-12T18:03:23.701Z,18.11
2023-05-12T18:08:27.083Z,18.49
2023-05-12T18:13:28.643Z,18.22
2023-05-12T18:18:30.315Z,18.35
2023-05-12T18:23:31.872Z,18.50
2023-05-12T18:28:33.358Z,17.94
2023-05-12T18:33:35.624Z,17.59
2023-05-12T18:38:37.146Z,17.42
2023-05-12T18:43:38.710Z,17.71
2023-05-12T18:48:40.374Z,17.19
2023-05-12T18:53:41.879Z,17.84
2023-05-12T18:58:43.400Z,17.95
2023-05-12T19:03:45.337Z,17.59
2023-05-12T19:08:47.360Z,17.79
2023-05-12T19:13:50.674Z,17.24
2023-05-12T19:18:52.237Z,17.42
2023-05-12T19:23:55.372Z,17.15
2023-05-12T19:28:56.980Z,17.37
2023-05-12T19:33:58.480Z,17.27
2023-05-12T19:39:00.450Z,17.20
2023-05-12T19:44:02.019Z,16.89
2023-05-12T19:49:03.548Z,17.22
2023-05-12T19:54:06.479Z,17.55
2023-05-12T19:59:08.006Z,17.89
2023-05-12T20:04:09.547Z,18.02
2023-05-12T20:09:11.099Z,18.43
2023-05-12T20:14:12.588Z,18.27
2023-05-12T20:19:14.322Z,18.53
2023-05-12T20:24:16.004Z,18.60
2023-05-12T20:29:20.894Z,18.02
2023-05-12T20:34:22.517Z,17.35
2023-05-12T20:39:24.222Z,17.39
2023-05-12T20:44:27.055Z,17.35
2023-05-12T20:49:28.563Z,17.39
2023-05-12T20:54:30.065Z,16.87
2023-05-12T20:59:31.674Z,16.86
2023-05-12T21:04:33.209Z,16.99
2023-05-12T21:09:34.807Z,16.69
2023-05-12T21:14:42.831Z,16.83
2023-05-12T21:19:44.432Z,17.47
2023-05-12T21:24:45.924Z,17.27
2023-05-12T21:29:47.423Z,16.13
2023-05-12T21:34:49.028Z,16.09
2023-05-12T21:39:50.634Z,17.40
2023-05-12T21:44:52.242Z,17.48
2023-05-12T21:49:54.916Z,17.67
2023-05-12T21:54:56.445Z,17.82
2023-05-12T22:00:02.369Z,17.47
2023-05-12T22:05:05.476Z,16.26
2023-05-12T22:10:07.272Z,15.87
2023-05-12T22:15:08.998Z,15.62
2023-05-12T22:20:11.097Z,15.25
2023-05-12T22:25:12.600Z,16.13
2023-05-12T22:30:14.293Z,15.46
2023-05-12T22:35:16.311Z,15.40
2023-05-12T22:40:20.158Z,15.59
2023-05-12T22:45:21.821Z,15.42
2023-05-12T22:50:23.691Z,16.01
2023-05-12T22:55:30.753Z,15.24
2023-05-12T23:00:32.311Z,15.46
2023-05-12T23:05:33.880Z,15.79
2023-05-12T23:10:35.463Z,15.89
2023-05-12T23:15:36.953Z,16.64
2023-05-12T23:20:38.497Z,16.27
2023-05-12T23:25:41.746Z,15.81
2023-05-12T23:30:43.248Z,16.13
2023-05-12T23:35:44.751Z,15.80
2023-05-12T23:40:46.281Z,16.36
2023-05-12T23:45:47.855Z,16.35
2023-05-12T23:50:49.374Z,16.70
2023-05-12T23:55:50.891Z,15.40
